sensor_id;sensor_type;location;lat;lon;timestamp;P1;durP1;ratioP1;P2;durP2;ratioP2
22937;SDS011;11634;42.734;23.298;2022-09-25T00:01:13;16.20;;;9.25;;
22937;SDS011;11634;42.734;23.298;2022-09-25T00:03:39;12.95;;;9.23;;
22937;SDS011;11634;42.734;23.298;2022-09-25T00:08:30;11.15;;;9.27;;
22937;SDS011;11634;42.734;23.298;2022-09-25T00:10:56;13.07;;;9.85;;
22937;SDS011;11634;42.734;23.298;2022-09-25T00:13:21;11.38;;;9.63;;
22937;SDS011;11634;42.734;23.298;2022-09-25T00:15:47;12.30;;;9.10;;
22937;SDS011;11634;42.734;23.298;2022-09-25T00:18:14;13.60;;;9.48;;
22937;SDS011;11634;42.734;23.298;2022-09-25T00:20:39;13.30;;;9.65;;
22937;SDS011;11634;42.734;23.298;2022-09-25T00:23:05;11.48;;;8.43;;
22937;SDS011;11634;42.734;23.298;2022-09-25T00:25:32;13.65;;;9.23;;
22937;SDS011;11634;42.734;23.298;2022-09-25T00:27:57;12.27;;;9.23;;
22937;SDS011;11634;42.734;23.298;2022-09-25T00:30:23;13.65;;;9.27;;
22937;SDS011;11634;42.734;23.298;2022-09-25T00:32:51;12.95;;;9.50;;
22937;SDS011;11634;42.734;23.298;2022-09-25T00:35:16;11.55;;;8.50;;
22937;SDS011;11634;42.734;23.298;2022-09-25T00:37:42;13.75;;;9.02;;
22937;SDS011;11634;42.734;23.298;2022-09-25T00:40:08;11.82;;;9.43;;
22937;SDS011;11634;42.734;23.298;2022-09-25T00:42:33;12.43;;;9.27;;
22937;SDS011;11634;42.734;23.298;2022-09-25T00:45:04;13.88;;;9.55;;
22937;SDS011;11634;42.734;23.298;2022-09-25T00:50:02;10.75;;;9.15;;
22937;SDS011;11634;42.734;23.298;2022-09-25T00:52:28;12.30;;;8.52;;
22937;SDS011;11634;42.734;23.298;2022-09-25T00:55:07;10.93;;;8.55;;
22937;SDS011;11634;42.734;23.298;2022-09-25T00:57:53;11.55;;;9.00;;
22937;SDS011;11634;42.734;23.298;2022-09-25T01:00:19;14.35;;;8.38;;
22937;SDS011;11634;42.734;23.298;2022-09-25T01:02:47;11.27;;;9.32;;
22937;SDS011;11634;42.734;23.298;2022-09-25T01:05:19;12.38;;;9.50;;
22937;SDS011;11634;42.734;23.298;2022-09-25T01:07:47;12.88;;;9.25;;
22937;SDS011;11634;42.734;23.298;2022-09-25T01:10:15;13.38;;;9.07;;
22937;SDS011;11634;42.734;23.298;2022-09-25T01:12:43;12.40;;;9.05;;
22937;SDS011;11634;42.734;23.298;2022-09-25T01:15:10;12.60;;;9.38;;
22937;SDS011;11634;42.734;23.298;2022-09-25T01:30:37;12.23;;;9.13;;
22937;SDS011;11634;42.734;23.298;2022-09-25T01:35:42;11.95;;;8.75;;
22937;SDS011;11634;42.734;23.298;2022-09-25T01:43:49;13.30;;;9.38;;
22937;SDS011;11634;42.734;23.298;2022-09-25T01:46:20;11.63;;;8.50;;
22937;SDS011;11634;42.734;23.298;2022-09-25T01:48:48;12.50;;;8.95;;
22937;SDS011;11634;42.734;23.298;2022-09-25T01:51:15;11.90;;;9.18;;
22937;SDS011;11634;42.734;23.298;2022-09-25T01:53:46;11.18;;;9.20;;
22937;SDS011;11634;42.734;23.298;2022-09-25T01:56:27;13.18;;;9.13;;
22937;SDS011;11634;42.734;23.298;2022-09-25T02:02:02;15.23;;;8.95;;
22937;SDS011;11634;42.734;23.298;2022-09-25T02:05:04;13.25;;;9.02;;
22937;SDS011;11634;42.734;23.298;2022-09-25T02:07:23;10.95;;;9.23;;
22937;SDS011;11634;42.734;23.298;2022-09-25T02:09:53;11.23;;;9.00;;
22937;SDS011;11634;42.734;23.298;2022-09-25T02:12:22;11.57;;;9.45;;
22937;SDS011;11634;42.734;23.298;2022-09-25T02:14:53;12.13;;;9.38;;
22937;SDS011;11634;42.734;23.298;2022-09-25T02:17:22;10.98;;;8.50;;
22937;SDS011;11634;42.734;23.298;2022-09-25T02:20:07;11.25;;;8.80;;
22937;SDS011;11634;42.734;23.298;2022-09-25T02:22:51;14.00;;;9.73;;
22937;SDS011;11634;42.734;23.298;2022-09-25T02:25:19;12.20;;;9.90;;
22937;SDS011;11634;42.734;23.298;2022-09-25T02:27:47;13.00;;;9.80;;
22937;SDS011;11634;42.734;23.298;2022-09-25T02:30:12;11.43;;;9.65;;
22937;SDS011;11634;42.734;23.298;2022-09-25T02:32:37;11.05;;;8.80;;
22937;SDS011;11634;42.734;23.298;2022-09-25T02:35:03;13.25;;;9.45;;
22937;SDS011;11634;42.734;23.298;2022-09-25T02:37:28;11.35;;;9.23;;
22937;SDS011;11634;42.734;23.298;2022-09-25T02:39:58;12.23;;;8.70;;
22937;SDS011;11634;42.734;23.298;2022-09-25T02:45:09;14.20;;;9.52;;
22937;SDS011;11634;42.734;23.298;2022-09-25T02:50:16;11.55;;;9.27;;
22937;SDS011;11634;42.734;23.298;2022-09-25T02:53:32;13.13;;;9.55;;
22937;SDS011;11634;42.734;23.298;2022-09-25T02:58:02;11.95;;;9.10;;
22937;SDS011;11634;42.734;23.298;2022-09-25T03:00:28;12.15;;;9.95;;
22937;SDS011;11634;42.734;23.298;2022-09-25T03:02:55;12.07;;;10.82;;
22937;SDS011;11634;42.734;23.298;2022-09-25T03:05:23;11.75;;;10.32;;
22937;SDS011;11634;42.734;23.298;2022-09-25T03:07:50;13.27;;;9.98;;
22937;SDS011;11634;42.734;23.298;2022-09-25T03:10:34;11.25;;;9.43;;
22937;SDS011;11634;42.734;23.298;2022-09-25T03:13:14;10.32;;;8.82;;
22937;SDS011;11634;42.734;23.298;2022-09-25T03:15:40;11.80;;;9.10;;
22937;SDS011;11634;42.734;23.298;2022-09-25T03:18:07;10.05;;;8.93;;
22937;SDS011;11634;42.734;23.298;2022-09-25T03:20:33;13.20;;;9.30;;
22937;SDS011;11634;42.734;23.298;2022-09-25T03:22:58;12.85;;;9.70;;
22937;SDS011;11634;42.734;23.298;2022-09-25T03:25:24;13.77;;;9.52;;
22937;SDS011;11634;42.734;23.298;2022-09-25T03:27:51;10.93;;;9.05;;
22937;SDS011;11634;42.734;23.298;2022-09-25T03:30:17;11.50;;;9.40;;
22937;SDS011;11634;42.734;23.298;2022-09-25T03:32:42;12.90;;;9.57;;
22937;SDS011;11634;42.734;23.298;2022-09-25T03:35:08;14.48;;;9.95;;
22937;SDS011;11634;42.734;23.298;2022-09-25T03:37:34;13.52;;;9.52;;
22937;SDS011;11634;42.734;23.298;2022-09-25T03:39:59;12.20;;;8.88;;
22937;SDS011;11634;42.734;23.298;2022-09-25T03:42:25;16.77;;;9.90;;
22937;SDS011;11634;42.734;23.298;2022-09-25T03:44:52;13.57;;;10.07;;
22937;SDS011;11634;42.734;23.298;2022-09-25T03:47:17;11.98;;;9.40;;
22937;SDS011;11634;42.734;23.298;2022-09-25T03:49:43;12.15;;;9.43;;
22937;SDS011;11634;42.734;23.298;2022-09-25T03:52:08;12.80;;;9.43;;
22937;SDS011;11634;42.734;23.298;2022-09-25T03:54:40;13.40;;;9.80;;
22937;SDS011;11634;42.734;23.298;2022-09-25T03:57:05;12.48;;;9.32;;
22937;SDS011;11634;42.734;23.298;2022-09-25T03:59:30;15.50;;;10.00;;
22937;SDS011;11634;42.734;23.298;2022-09-25T04:01:56;14.48;;;10.00;;
22937;SDS011;11634;42.734;23.298;2022-09-25T04:04:22;15.98;;;10.38;;
22937;SDS011;11634;42.734;23.298;2022-09-25T04:06:47;14.25;;;9.25;;
22937;SDS011;11634;42.734;23.298;2022-09-25T04:09:13;14.15;;;9.63;;
22937;SDS011;11634;42.734;23.298;2022-09-25T04:11:38;12.90;;;9.80;;
22937;SDS011;11634;42.734;23.298;2022-09-25T04:14:04;16.30;;;11.40;;
22937;SDS011;11634;42.734;23.298;2022-09-25T04:16:29;13.85;;;9.77;;
22937;SDS011;11634;42.734;23.298;2022-09-25T04:18:56;16.80;;;10.70;;
22937;SDS011;11634;42.734;23.298;2022-09-25T04:21:25;13.23;;;9.90;;
22937;SDS011;11634;42.734;23.298;2022-09-25T04:23:50;10.48;;;9.10;;
22937;SDS011;11634;42.734;23.298;2022-09-25T04:26:34;13.45;;;9.90;;
22937;SDS011;11634;42.734;23.298;2022-09-25T04:29:01;13.05;;;9.18;;
22937;SDS011;11634;42.734;23.298;2022-09-25T04:31:29;12.70;;;9.98;;
22937;SDS011;11634;42.734;23.298;2022-09-25T04:33:55;14.55;;;10.48;;
22937;SDS011;11634;42.734;23.298;2022-09-25T04:36:20;13.20;;;10.23;;
22937;SDS011;11634;42.734;23.298;2022-09-25T04:38:46;17.52;;;9.95;;
22937;SDS011;11634;42.734;23.298;2022-09-25T04:41:12;16.85;;;10.60;;
22937;SDS011;11634;42.734;23.298;2022-09-25T04:43:40;14.38;;;10.50;;
22937;SDS011;11634;42.734;23.298;2022-09-25T04:46:08;16.25;;;11.20;;
22937;SDS011;11634;42.734;23.298;2022-09-25T04:48:33;17.67;;;11.25;;
22937;SDS011;11634;42.734;23.298;2022-09-25T04:50:59;14.60;;;10.82;;
22937;SDS011;11634;42.734;23.298;2022-09-25T04:53:25;15.57;;;12.52;;
22937;SDS011;11634;42.734;23.298;2022-09-25T04:55:51;17.23;;;11.35;;
22937;SDS011;11634;42.734;23.298;2022-09-25T04:58:20;18.73;;;10.43;;
22937;SDS011;11634;42.734;23.298;2022-09-25T05:00:46;17.77;;;11.75;;
22937;SDS011;11634;42.734;23.298;2022-09-25T05:03:11;14.27;;;10.20;;
22937;SDS011;11634;42.734;23.298;2022-09-25T05:05:37;13.95;;;10.15;;
22937;SDS011;11634;42.734;23.298;2022-09-25T05:08:03;15.27;;;10.32;;
22937;SDS011;11634;42.734;23.298;2022-09-25T05:10:31;16.27;;;11.25;;
22937;SDS011;11634;42.734;23.298;2022-09-25T05:12:58;15.32;;;10.50;;
22937;SDS011;11634;42.734;23.298;2022-09-25T05:15:24;11.80;;;9.70;;
22937;SDS011;11634;42.734;23.298;2022-09-25T05:17:50;14.20;;;10.65;;
22937;SDS011;11634;42.734;23.298;2022-09-25T05:20:23;14.30;;;9.98;;
22937;SDS011;11634;42.734;23.298;2022-09-25T05:22:48;14.25;;;9.90;;
22937;SDS011;11634;42.734;23.298;2022-09-25T05:25:18;12.15;;;8.30;;
22937;SDS011;11634;42.734;23.298;2022-09-25T05:27:44;11.90;;;7.72;;
22937;SDS011;11634;42.734;23.298;2022-09-25T05:30:09;8.55;;;7.40;;
22937;SDS011;11634;42.734;23.298;2022-09-25T05:32:35;10.15;;;7.18;;
22937;SDS011;11634;42.734;23.298;2022-09-25T05:35:01;9.27;;;7.15;;
22937;SDS011;11634;42.734;23.298;2022-09-25T05:37:27;10.00;;;6.90;;
22937;SDS011;11634;42.734;23.298;2022-09-25T05:39:53;6.97;;;6.20;;
22937;SDS011;11634;42.734;23.298;2022-09-25T05:42:18;6.75;;;5.60;;
22937;SDS011;11634;42.734;23.298;2022-09-25T05:44:44;16.73;;;7.60;;
22937;SDS011;11634;42.734;23.298;2022-09-25T05:47:09;7.88;;;6.60;;
22937;SDS011;11634;42.734;23.298;2022-09-25T05:49:35;10.48;;;5.88;;
22937;SDS011;11634;42.734;23.298;2022-09-25T05:52:00;6.60;;;5.65;;
22937;SDS011;11634;42.734;23.298;2022-09-25T05:54:26;8.00;;;6.60;;
22937;SDS011;11634;42.734;23.298;2022-09-25T05:56:51;11.60;;;6.47;;
22937;SDS011;11634;42.734;23.298;2022-09-25T05:59:16;19.02;;;13.23;;
22937;SDS011;11634;42.734;23.298;2022-09-25T06:01:42;20.45;;;14.63;;
22937;SDS011;11634;42.734;23.298;2022-09-25T06:04:07;36.50;;;19.48;;
22937;SDS011;11634;42.734;23.298;2022-09-25T06:06:33;25.27;;;14.70;;
22937;SDS011;11634;42.734;23.298;2022-09-25T06:08:59;16.13;;;10.02;;
22937;SDS011;11634;42.734;23.298;2022-09-25T06:11:25;17.42;;;11.60;;
22937;SDS011;11634;42.734;23.298;2022-09-25T06:13:51;13.40;;;9.50;;
22937;SDS011;11634;42.734;23.298;2022-09-25T06:16:19;10.77;;;7.97;;
22937;SDS011;11634;42.734;23.298;2022-09-25T06:18:45;8.00;;;7.05;;
22937;SDS011;11634;42.734;23.298;2022-09-25T06:21:11;10.43;;;6.63;;
22937;SDS011;11634;42.734;23.298;2022-09-25T06:23:36;9.75;;;6.68;;
22937;SDS011;11634;42.734;23.298;2022-09-25T06:26:02;10.25;;;7.57;;
22937;SDS011;11634;42.734;23.298;2022-09-25T06:28:28;8.77;;;7.15;;
22937;SDS011;11634;42.734;23.298;2022-09-25T06:30:55;8.10;;;6.75;;
22937;SDS011;11634;42.734;23.298;2022-09-25T06:33:20;8.32;;;6.85;;
22937;SDS011;11634;42.734;23.298;2022-09-25T06:35:46;11.38;;;6.82;;
22937;SDS011;11634;42.734;23.298;2022-09-25T06:38:13;10.65;;;6.93;;
22937;SDS011;11634;42.734;23.298;2022-09-25T06:40:39;10.57;;;6.15;;
22937;SDS011;11634;42.734;23.298;2022-09-25T06:43:05;10.38;;;6.82;;
22937;SDS011;11634;42.734;23.298;2022-09-25T06:45:32;7.70;;;6.78;;
22937;SDS011;11634;42.734;23.298;2022-09-25T06:48:05;9.45;;;6.63;;
22937;SDS011;11634;42.734;23.298;2022-09-25T06:50:51;7.18;;;6.47;;
22937;SDS011;11634;42.734;23.298;2022-09-25T06:53:17;7.57;;;5.88;;
22937;SDS011;11634;42.734;23.298;2022-09-25T06:55:43;9.65;;;7.40;;
22937;SDS011;11634;42.734;23.298;2022-09-25T06:58:10;7.82;;;6.88;;
22937;SDS011;11634;42.734;23.298;2022-09-25T07:00:36;7.82;;;6.47;;
22937;SDS011;11634;42.734;23.298;2022-09-25T07:03:02;8.55;;;6.28;;
22937;SDS011;11634;42.734;23.298;2022-09-25T07:05:47;10.98;;;7.63;;
22937;SDS011;11634;42.734;23.298;2022-09-25T07:08:13;8.18;;;6.38;;
22937;SDS011;11634;42.734;23.298;2022-09-25T07:10:45;9.48;;;6.57;;
22937;SDS011;11634;42.734;23.298;2022-09-25T07:13:11;7.72;;;6.07;;
22937;SDS011;11634;42.734;23.298;2022-09-25T07:15:36;14.95;;;7.15;;
22937;SDS011;11634;42.734;23.298;2022-09-25T07:18:01;12.05;;;6.97;;
22937;SDS011;11634;42.734;23.298;2022-09-25T07:20:27;6.93;;;6.18;;
22937;SDS011;11634;42.734;23.298;2022-09-25T07:22:56;7.22;;;6.50;;
22937;SDS011;11634;42.734;23.298;2022-09-25T07:25:23;7.10;;;6.40;;
22937;SDS011;11634;42.734;23.298;2022-09-25T07:27:48;7.97;;;6.72;;
22937;SDS011;11634;42.734;23.298;2022-09-25T07:30:14;7.88;;;6.05;;
22937;SDS011;11634;42.734;23.298;2022-09-25T07:32:39;7.82;;;6.25;;
22937;SDS011;11634;42.734;23.298;2022-09-25T07:35:07;7.15;;;6.05;;
22937;SDS011;11634;42.734;23.298;2022-09-25T07:37:33;6.53;;;5.80;;
22937;SDS011;11634;42.734;23.298;2022-09-25T07:39:58;6.60;;;5.82;;
22937;SDS011;11634;42.734;23.298;2022-09-25T07:42:24;6.10;;;5.50;;
22937;SDS011;11634;42.734;23.298;2022-09-25T07:44:50;7.35;;;5.30;;
22937;SDS011;11634;42.734;23.298;2022-09-25T07:47:42;7.40;;;5.63;;
22937;SDS011;11634;42.734;23.298;2022-09-25T07:50:52;6.65;;;5.95;;
22937;SDS011;11634;42.734;23.298;2022-09-25T07:53:19;8.45;;;5.95;;
22937;SDS011;11634;42.734;23.298;2022-09-25T07:55:45;6.90;;;5.13;;
22937;SDS011;11634;42.734;23.298;2022-09-25T07:58:11;7.63;;;5.63;;
22937;SDS011;11634;42.734;23.298;2022-09-25T08:00:36;8.77;;;5.30;;
22937;SDS011;11634;42.734;23.298;2022-09-25T08:03:02;7.70;;;5.20;;
22937;SDS011;11634;42.734;23.298;2022-09-25T08:05:27;6.75;;;4.88;;
22937;SDS011;11634;42.734;23.298;2022-09-25T08:07:53;5.70;;;5.10;;
22937;SDS011;11634;42.734;23.298;2022-09-25T08:10:19;7.50;;;4.95;;
22937;SDS011;11634;42.734;23.298;2022-09-25T08:12:44;5.30;;;4.80;;
22937;SDS011;11634;42.734;23.298;2022-09-25T08:15:10;5.32;;;4.82;;
22937;SDS011;11634;42.734;23.298;2022-09-25T08:17:35;5.88;;;4.75;;
22937;SDS011;11634;42.734;23.298;2022-09-25T08:20:01;7.78;;;5.25;;
22937;SDS011;11634;42.734;23.298;2022-09-25T08:22:26;7.25;;;4.60;;
22937;SDS011;11634;42.734;23.298;2022-09-25T08:24:52;5.45;;;4.90;;
22937;SDS011;11634;42.734;23.298;2022-09-25T08:27:17;5.35;;;4.85;;
22937;SDS011;11634;42.734;23.298;2022-09-25T08:29:43;4.88;;;4.32;;
22937;SDS011;11634;42.734;23.298;2022-09-25T08:32:08;4.50;;;3.92;;
22937;SDS011;11634;42.734;23.298;2022-09-25T08:34:33;4.95;;;3.90;;
22937;SDS011;11634;42.734;23.298;2022-09-25T08:37:02;4.35;;;3.95;;
22937;SDS011;11634;42.734;23.298;2022-09-25T08:39:28;3.53;;;3.10;;
22937;SDS011;11634;42.734;23.298;2022-09-25T08:41:53;4.28;;;3.88;;
22937;SDS011;11634;42.734;23.298;2022-09-25T08:46:50;4.13;;;3.65;;
22937;SDS011;11634;42.734;23.298;2022-09-25T08:49:39;5.40;;;3.95;;
22937;SDS011;11634;42.734;23.298;2022-09-25T08:52:07;4.03;;;3.63;;
22937;SDS011;11634;42.734;23.298;2022-09-25T08:54:36;7.25;;;4.45;;
22937;SDS011;11634;42.734;23.298;2022-09-25T08:57:34;4.40;;;3.25;;
22937;SDS011;11634;42.734;23.298;2022-09-25T08:59:48;6.55;;;4.50;;
22937;SDS011;11634;42.734;23.298;2022-09-25T09:02:16;4.80;;;4.00;;
22937;SDS011;11634;42.734;23.298;2022-09-25T09:04:50;4.10;;;3.70;;
22937;SDS011;11634;42.734;23.298;2022-09-25T09:07:20;3.70;;;3.40;;
22937;SDS011;11634;42.734;23.298;2022-09-25T09:09:48;4.10;;;3.67;;
22937;SDS011;11634;42.734;23.298;2022-09-25T09:12:18;4.00;;;3.15;;
22937;SDS011;11634;42.734;23.298;2022-09-25T09:14:47;4.68;;;3.30;;
22937;SDS011;11634;42.734;23.298;2022-09-25T09:19:39;3.95;;;3.00;;
22937;SDS011;11634;42.734;23.298;2022-09-25T09:22:08;4.50;;;3.45;;
22937;SDS011;11634;42.734;23.298;2022-09-25T09:25:36;5.43;;;3.42;;
22937;SDS011;11634;42.734;23.298;2022-09-25T09:27:36;3.83;;;2.83;;
22937;SDS011;11634;42.734;23.298;2022-09-25T09:35:20;4.07;;;3.67;;
22937;SDS011;11634;42.734;23.298;2022-09-25T09:37:54;10.48;;;3.30;;
22937;SDS011;11634;42.734;23.298;2022-09-25T09:40:25;3.55;;;3.22;;
22937;SDS011;11634;42.734;23.298;2022-09-25T09:42:56;3.70;;;2.90;;
22937;SDS011;11634;42.734;23.298;2022-09-25T09:47:58;3.53;;;3.22;;
22937;SDS011;11634;42.734;23.298;2022-09-25T09:53:03;3.20;;;2.60;;
22937;SDS011;11634;42.734;23.298;2022-09-25T09:55:37;3.10;;;2.80;;
22937;SDS011;11634;42.734;23.298;2022-09-25T09:58:09;3.58;;;2.92;;
22937;SDS011;11634;42.734;23.298;2022-09-25T10:00:36;3.10;;;2.80;;
22937;SDS011;11634;42.734;23.298;2022-09-25T10:05:50;3.92;;;3.33;;
22937;SDS011;11634;42.734;23.298;2022-09-25T10:08:17;4.28;;;3.22;;
22937;SDS011;11634;42.734;23.298;2022-09-25T10:10:46;4.35;;;3.38;;
22937;SDS011;11634;42.734;23.298;2022-09-25T10:15:51;3.50;;;3.10;;
22937;SDS011;11634;42.734;23.298;2022-09-25T10:18:23;3.28;;;2.83;;
22937;SDS011;11634;42.734;23.298;2022-09-25T10:20:54;2.80;;;2.60;;
22937;SDS011;11634;42.734;23.298;2022-09-25T10:23:37;2.80;;;2.60;;
22937;SDS011;11634;42.734;23.298;2022-09-25T10:28:47;3.08;;;2.60;;
22937;SDS011;11634;42.734;23.298;2022-09-25T10:31:13;5.18;;;2.60;;
22937;SDS011;11634;42.734;23.298;2022-09-25T10:33:39;4.80;;;2.22;;
22937;SDS011;11634;42.734;23.298;2022-09-25T10:36:05;7.38;;;2.88;;
22937;SDS011;11634;42.734;23.298;2022-09-25T10:38:43;5.93;;;4.63;;
22937;SDS011;11634;42.734;23.298;2022-09-25T10:41:12;5.47;;;3.42;;
22937;SDS011;11634;42.734;23.298;2022-09-25T10:43:48;3.17;;;2.78;;
22937;SDS011;11634;42.734;23.298;2022-09-25T10:46:14;3.78;;;2.55;;
22937;SDS011;11634;42.734;23.298;2022-09-25T10:48:40;2.70;;;2.50;;
22937;SDS011;11634;42.734;23.298;2022-09-25T10:51:25;3.47;;;2.80;;
22937;SDS011;11634;42.734;23.298;2022-09-25T10:53:52;2.60;;;2.40;;
22937;SDS011;11634;42.734;23.298;2022-09-25T10:56:21;3.97;;;2.38;;
22937;SDS011;11634;42.734;23.298;2022-09-25T10:58:58;2.97;;;2.67;;
22937;SDS011;11634;42.734;23.298;2022-09-25T11:01:31;2.63;;;2.42;;
22937;SDS011;11634;42.734;23.298;2022-09-25T11:04:13;7.72;;;3.00;;
22937;SDS011;11634;42.734;23.298;2022-09-25T11:06:47;3.95;;;2.60;;
22937;SDS011;11634;42.734;23.298;2022-09-25T11:09:17;3.13;;;2.83;;
22937;SDS011;11634;42.734;23.298;2022-09-25T11:11:44;3.65;;;3.35;;
22937;SDS011;11634;42.734;23.298;2022-09-25T11:14:33;3.10;;;2.78;;
22937;SDS011;11634;42.734;23.298;2022-09-25T11:17:00;3.83;;;2.95;;
22937;SDS011;11634;42.734;23.298;2022-09-25T11:19:29;4.63;;;3.28;;
22937;SDS011;11634;42.734;23.298;2022-09-25T11:24:42;4.70;;;4.03;;
22937;SDS011;11634;42.734;23.298;2022-09-25T11:27:13;2.80;;;2.55;;
22937;SDS011;11634;42.734;23.298;2022-09-25T11:29:50;3.13;;;2.70;;
22937;SDS011;11634;42.734;23.298;2022-09-25T11:35:41;2.83;;;2.53;;
22937;SDS011;11634;42.734;23.298;2022-09-25T11:40:58;3.97;;;2.90;;
22937;SDS011;11634;42.734;23.298;2022-09-25T11:43:50;3.00;;;2.50;;
22937;SDS011;11634;42.734;23.298;2022-09-25T11:57:06;2.88;;;2.58;;
22937;SDS011;11634;42.734;23.298;2022-09-25T12:00:03;3.17;;;2.40;;
22937;SDS011;11634;42.734;23.298;2022-09-25T12:10:47;4.70;;;3.42;;
22937;SDS011;11634;42.734;23.298;2022-09-25T12:14:19;2.83;;;2.25;;
22937;SDS011;11634;42.734;23.298;2022-09-25T12:16:19;3.80;;;2.85;;
22937;SDS011;11634;42.734;23.298;2022-09-25T12:21:50;3.38;;;2.40;;
22937;SDS011;11634;42.734;23.298;2022-09-25T12:39:31;3.85;;;1.80;;
22937;SDS011;11634;42.734;23.298;2022-09-25T12:42:17;2.13;;;1.58;;
22937;SDS011;11634;42.734;23.298;2022-09-25T12:44:47;4.60;;;2.08;;
22937;SDS011;11634;42.734;23.298;2022-09-25T12:49:45;2.97;;;2.45;;
22937;SDS011;11634;42.734;23.298;2022-09-25T12:52:20;4.88;;;2.40;;
22937;SDS011;11634;42.734;23.298;2022-09-25T13:05:07;3.53;;;1.92;;
22937;SDS011;11634;42.734;23.298;2022-09-25T13:07:49;2.15;;;1.63;;
22937;SDS011;11634;42.734;23.298;2022-09-25T13:12:44;2.53;;;1.65;;
22937;SDS011;11634;42.734;23.298;2022-09-25T13:15:17;4.35;;;2.22;;
22937;SDS011;11634;42.734;23.298;2022-09-25T13:17:44;2.97;;;2.50;;
22937;SDS011;11634;42.734;23.298;2022-09-25T13:22:58;1.90;;;1.70;;
22937;SDS011;11634;42.734;23.298;2022-09-25T13:25:24;2.90;;;1.70;;
22937;SDS011;11634;42.734;23.298;2022-09-25T13:27:49;3.63;;;1.90;;
22937;SDS011;11634;42.734;23.298;2022-09-25T13:30:28;2.00;;;1.70;;
22937;SDS011;11634;42.734;23.298;2022-09-25T13:32:54;2.05;;;1.80;;
22937;SDS011;11634;42.734;23.298;2022-09-25T13:35:22;3.42;;;1.85;;
22937;SDS011;11634;42.734;23.298;2022-09-25T13:37:48;2.38;;;1.67;;
22937;SDS011;11634;42.734;23.298;2022-09-25T13:40:25;2.17;;;1.98;;
22937;SDS011;11634;42.734;23.298;2022-09-25T13:43:26;2.70;;;1.95;;
22937;SDS011;11634;42.734;23.298;2022-09-25T13:48:48;2.83;;;1.88;;
22937;SDS011;11634;42.734;23.298;2022-09-25T13:54:01;3.55;;;1.95;;
22937;SDS011;11634;42.734;23.298;2022-09-25T13:56:44;1.60;;;1.50;;
22937;SDS011;11634;42.734;23.298;2022-09-25T14:01:50;2.58;;;1.92;;
22937;SDS011;11634;42.734;23.298;2022-09-25T14:04:31;2.83;;;2.47;;
22937;SDS011;11634;42.734;23.298;2022-09-25T14:07:15;3.40;;;1.42;;
22937;SDS011;11634;42.734;23.298;2022-09-25T14:09:43;1.65;;;1.55;;
22937;SDS011;11634;42.734;23.298;2022-09-25T14:12:17;3.08;;;1.75;;
22937;SDS011;11634;42.734;23.298;2022-09-25T14:14:54;2.42;;;1.70;;
22937;SDS011;11634;42.734;23.298;2022-09-25T14:17:22;3.45;;;2.85;;
22937;SDS011;11634;42.734;23.298;2022-09-25T14:19:51;5.97;;;4.88;;
22937;SDS011;11634;42.734;23.298;2022-09-25T14:22:31;1.83;;;1.70;;
22937;SDS011;11634;42.734;23.298;2022-09-25T14:24:58;1.75;;;1.65;;
22937;SDS011;11634;42.734;23.298;2022-09-25T14:27:24;3.35;;;1.90;;
22937;SDS011;11634;42.734;23.298;2022-09-25T14:30:00;3.70;;;2.00;;
22937;SDS011;11634;42.734;23.298;2022-09-25T14:35:42;4.95;;;2.08;;
22937;SDS011;11634;42.734;23.298;2022-09-25T14:46:08;3.33;;;2.10;;
22937;SDS011;11634;42.734;23.298;2022-09-25T14:48:37;1.95;;;1.75;;
22937;SDS011;11634;42.734;23.298;2022-09-25T14:51:09;2.72;;;1.95;;
22937;SDS011;11634;42.734;23.298;2022-09-25T14:53:38;2.05;;;1.70;;
22937;SDS011;11634;42.734;23.298;2022-09-25T14:56:04;3.13;;;1.88;;
22937;SDS011;11634;42.734;23.298;2022-09-25T14:58:36;2.13;;;1.60;;
22937;SDS011;11634;42.734;23.298;2022-09-25T15:01:13;2.22;;;1.60;;
22937;SDS011;11634;42.734;23.298;2022-09-25T15:03:42;2.25;;;1.90;;
22937;SDS011;11634;42.734;23.298;2022-09-25T15:06:21;2.03;;;1.75;;
22937;SDS011;11634;42.734;23.298;2022-09-25T15:08:47;1.92;;;1.70;;
22937;SDS011;11634;42.734;23.298;2022-09-25T15:11:13;2.38;;;2.00;;
22937;SDS011;11634;42.734;23.298;2022-09-25T15:13:39;2.47;;;1.83;;
22937;SDS011;11634;42.734;23.298;2022-09-25T15:16:16;2.67;;;1.60;;
22937;SDS011;11634;42.734;23.298;2022-09-25T15:19:01;4.38;;;2.03;;
22937;SDS011;11634;42.734;23.298;2022-09-25T15:23:53;2.80;;;2.00;;
22937;SDS011;11634;42.734;23.298;2022-09-25T15:26:19;2.45;;;1.85;;
22937;SDS011;11634;42.734;23.298;2022-09-25T15:28:45;1.75;;;1.65;;
22937;SDS011;11634;42.734;23.298;2022-09-25T15:31:11;2.53;;;2.08;;
22937;SDS011;11634;42.734;23.298;2022-09-25T15:33:37;2.72;;;1.73;;
22937;SDS011;11634;42.734;23.298;2022-09-25T15:36:16;3.58;;;2.17;;
22937;SDS011;11634;42.734;23.298;2022-09-25T15:38:56;2.65;;;1.90;;
22937;SDS011;11634;42.734;23.298;2022-09-25T15:41:24;1.83;;;1.70;;
22937;SDS011;11634;42.734;23.298;2022-09-25T15:43:50;2.58;;;1.90;;
22937;SDS011;11634;42.734;23.298;2022-09-25T15:48:49;2.05;;;1.85;;
22937;SDS011;11634;42.734;23.298;2022-09-25T15:51:17;3.42;;;1.60;;
22937;SDS011;11634;42.734;23.298;2022-09-25T15:53:48;3.55;;;1.80;;
22937;SDS011;11634;42.734;23.298;2022-09-25T15:58:44;1.75;;;1.65;;
22937;SDS011;11634;42.734;23.298;2022-09-25T16:01:10;2.97;;;1.65;;
22937;SDS011;11634;42.734;23.298;2022-09-25T16:03:54;2.97;;;1.90;;
22937;SDS011;11634;42.734;23.298;2022-09-25T16:06:42;2.20;;;1.90;;
22937;SDS011;11634;42.734;23.298;2022-09-25T16:11:49;6.75;;;2.63;;
22937;SDS011;11634;42.734;23.298;2022-09-25T16:14:48;3.78;;;2.20;;
22937;SDS011;11634;42.734;23.298;2022-09-25T16:17:13;6.03;;;2.70;;
22937;SDS011;11634;42.734;23.298;2022-09-25T16:19:39;6.47;;;2.95;;
22937;SDS011;11634;42.734;23.298;2022-09-25T16:22:17;2.67;;;2.30;;
22937;SDS011;11634;42.734;23.298;2022-09-25T16:24:47;3.72;;;2.55;;
22937;SDS011;11634;42.734;23.298;2022-09-25T16:27:22;2.20;;;2.00;;
22937;SDS011;11634;42.734;23.298;2022-09-25T16:29:48;3.55;;;3.22;;
22937;SDS011;11634;42.734;23.298;2022-09-25T16:32:14;6.57;;;3.92;;
22937;SDS011;11634;42.734;23.298;2022-09-25T16:34:41;4.10;;;3.03;;
22937;SDS011;11634;42.734;23.298;2022-09-25T16:37:18;4.15;;;2.65;;
22937;SDS011;11634;42.734;23.298;2022-09-25T16:39:45;6.28;;;2.50;;
22937;SDS011;11634;42.734;23.298;2022-09-25T16:44:45;3.13;;;2.58;;
22937;SDS011;11634;42.734;23.298;2022-09-25T16:47:12;4.03;;;2.70;;
22937;SDS011;11634;42.734;23.298;2022-09-25T16:49:38;3.67;;;3.20;;
22937;SDS011;11634;42.734;23.298;2022-09-25T16:52:04;3.33;;;2.72;;
22937;SDS011;11634;42.734;23.298;2022-09-25T16:54:30;5.93;;;3.10;;
22937;SDS011;11634;42.734;23.298;2022-09-25T16:56:56;2.75;;;2.40;;
22937;SDS011;11634;42.734;23.298;2022-09-25T16:59:24;6.47;;;3.20;;
22937;SDS011;11634;42.734;23.298;2022-09-25T17:01:50;4.65;;;2.92;;
22937;SDS011;11634;42.734;23.298;2022-09-25T17:04:19;8.15;;;6.00;;
22937;SDS011;11634;42.734;23.298;2022-09-25T17:06:45;5.38;;;3.42;;
22937;SDS011;11634;42.734;23.298;2022-09-25T17:09:14;4.22;;;3.17;;
22937;SDS011;11634;42.734;23.298;2022-09-25T17:11:40;5.03;;;4.05;;
22937;SDS011;11634;42.734;23.298;2022-09-25T17:14:06;10.05;;;5.43;;
22937;SDS011;11634;42.734;23.298;2022-09-25T17:16:32;11.20;;;6.40;;
22937;SDS011;11634;42.734;23.298;2022-09-25T17:18:57;5.65;;;4.70;;